Time;durP1;ratioP1;P1;durP2;ratioP2;P2;SDS_P1;SDS_P2;PMS_P1;PMS_P2;Temp;Humidity;BMP_temperature;BMP_pressure;BME280_temperature;BME280_humidity;BME280_pressure;Samples;Min_cycle;Max_cycle;Signal;HPM_P1;HPM_P2
2023/07/22 00:00:05;;;;;;;8.10;5.73;;;12.60;99.90;;;;;;5009149;28;20224;-79
2023/07/22 00:02:33;;;;;;;9.30;5.93;;;12.60;99.90;;;;;;5021511;28;20253;-79
2023/07/22 00:05:00;;;;;;;6.90;5.07;;;12.50;99.90;;;;;;5021000;28;20222;-79
2023/07/22 00:07:27;;;;;;;9.13;5.60;;;12.50;99.90;;;;;;5018152;28;20248;-79
2023/07/22 00:09:54;;;;;;;8.10;6.30;;;12.50;99.90;;;;;;5021504;28;20214;-79
2023/07/22 00:12:25;;;;;;;8.33;5.80;;;12.50;99.90;;;;;;5024519;28;20227;-79
2023/07/22 00:14:52;;;;;;;9.60;5.97;;;12.50;99.90;;;;;;5022386;28;20218;-79
2023/07/22 00:17:19;;;;;;;8.13;5.87;;;12.50;99.90;;;;;;5018989;28;20314;-80
2023/07/22 00:19:49;;;;;;;11.63;6.07;;;12.50;99.90;;;;;;5015870;28;20223;-80
2023/07/22 00:22:16;;;;;;;11.37;7.00;;;12.50;99.90;;;;;;5020329;28;20226;-79
2023/07/22 00:24:42;;;;;;;10.97;6.90;;;12.60;99.90;;;;;;5020007;28;20219;-80
2023/07/22 00:27:09;;;;;;;10.40;7.17;;;12.50;99.90;;;;;;5016353;28;20979;-79
2023/07/22 00:29:36;;;;;;;8.57;6.63;;;12.60;99.90;;;;;;5021295;28;20798;-79
2023/07/22 00:32:02;;;;;;;9.67;6.47;;;12.60;99.90;;;;;;5034713;28;21436;-79
2023/07/22 00:34:29;;;;;;;11.80;7.03;;;12.60;99.90;;;;;;5003019;28;20314;-79
2023/07/22 00:36:57;;;;;;;10.20;7.13;;;12.60;99.90;;;;;;5002958;28;20301;-78
2023/07/22 00:39:24;;;;;;;11.33;6.93;;;12.60;99.90;;;;;;5004764;28;20222;-79
2023/07/22 00:41:51;;;;;;;11.67;6.87;;;12.60;99.90;;;;;;5000299;28;21207;-79
2023/07/22 00:44:18;;;;;;;12.03;6.70;;;12.60;99.90;;;;;;5017137;28;20786;-79
2023/07/22 00:46:45;;;;;;;9.93;6.63;;;12.60;99.90;;;;;;5017432;28;20742;-79
2023/07/22 00:49:13;;;;;;;12.13;7.17;;;12.60;99.90;;;;;;5037029;28;20897;-78
2023/07/22 00:51:40;;;;;;;10.47;6.57;;;12.60;99.90;;;;;;5002981;28;20236;-78
2023/07/22 00:54:08;;;;;;;9.33;6.83;;;12.60;99.90;;;;;;5033462;28;20315;-78
2023/07/22 00:56:37;;;;;;;9.70;6.90;;;12.60;99.90;;;;;;5002915;28;20896;-78
2023/07/22 00:59:05;;;;;;;9.50;6.93;;;12.60;99.90;;;;;;5006457;28;20231;-78
2023/07/22 01:01:31;;;;;;;9.47;6.90;;;12.60;99.90;;;;;;5006089;28;20865;-79
2023/07/22 01:03:59;;;;;;;11.57;7.20;;;12.50;99.90;;;;;;5018191;28;20240;-78
2023/07/22 01:06:29;;;;;;;10.77;6.83;;;12.60;99.90;;;;;;5002306;28;20620;-78
2023/07/22 01:08:58;;;;;;;8.90;6.93;;;12.50;99.90;;;;;;5006013;28;21092;-78
2023/07/22 01:11:26;;;;;;;10.60;7.43;;;12.50;99.90;;;;;;5017753;28;20230;-80
2023/07/22 01:13:57;;;;;;;12.27;7.40;;;12.50;99.90;;;;;;5023469;28;20238;-79
2023/07/22 01:16:25;;;;;;;10.73;7.63;;;12.50;99.90;;;;;;5007920;28;20224;-79
2023/07/22 01:18:53;;;;;;;9.77;6.60;;;12.50;99.90;;;;;;5020942;28;20942;-79
2023/07/22 01:21:21;;;;;;;12.77;7.97;;;12.60;99.90;;;;;;5019933;28;20239;-79
2023/07/22 01:23:52;;;;;;;11.53;7.57;;;12.50;99.90;;;;;;5019667;28;20226;-79
2023/07/22 01:26:19;;;;;;;10.87;7.33;;;12.50;99.90;;;;;;5018435;28;20220;-79
2023/07/22 01:28:45;;;;;;;9.40;6.90;;;12.50;99.90;;;;;;5021960;28;21234;-78
2023/07/22 01:31:12;;;;;;;12.77;7.80;;;12.40;99.90;;;;;;5021797;28;20226;-78
2023/07/22 01:33:39;;;;;;;10.03;7.37;;;12.40;99.90;;;;;;5020781;28;20253;-78
2023/07/22 01:36:07;;;;;;;11.20;8.00;;;12.40;99.90;;;;;;5018130;28;20231;-78
2023/07/22 01:38:34;;;;;;;10.83;7.60;;;12.40;99.90;;;;;;5003036;28;20214;-79
2023/07/22 01:41:03;;;;;;;12.73;7.53;;;12.40;99.90;;;;;;5018917;28;20239;-79
2023/07/22 01:43:29;;;;;;;11.70;7.43;;;12.30;99.90;;;;;;5006662;28;20229;-79
2023/07/22 01:45:56;;;;;;;13.33;7.60;;;12.30;99.90;;;;;;5019622;28;20232;-78
2023/07/22 01:48:23;;;;;;;13.13;7.00;;;12.20;99.90;;;;;;5010121;28;20581;-79
2023/07/22 01:50:50;;;;;;;10.03;6.87;;;12.20;99.90;;;;;;5003662;28;20274;-80
2023/07/22 01:53:17;;;;;;;12.10;7.13;;;12.10;99.90;;;;;;5024850;28;20614;-80
2023/07/22 01:55:45;;;;;;;13.00;7.93;;;12.10;99.90;;;;;;5007535;28;20225;-80
2023/07/22 01:58:13;;;;;;;13.20;7.10;;;12.10;99.90;;;;;;5001486;28;20856;-79
2023/07/22 02:00:40;;;;;;;12.20;7.27;;;12.10;99.90;;;;;;5020933;28;20644;-79
2023/07/22 02:03:06;;;;;;;9.90;6.03;;;12.10;99.90;;;;;;5018261;28;20244;-79
2023/07/22 02:05:33;;;;;;;15.20;6.87;;;12.10;99.90;;;;;;5024980;28;20278;-79
2023/07/22 02:08:00;;;;;;;12.00;6.80;;;12.10;99.90;;;;;;5024092;28;20221;-78
2023/07/22 02:10:27;;;;;;;11.47;7.10;;;12.00;99.90;;;;;;4999076;28;20255;-79
2023/07/22 02:12:53;;;;;;;12.07;7.13;;;12.00;99.90;;;;;;5035912;28;20236;-79
2023/07/22 02:15:24;;;;;;;10.83;6.50;;;11.90;99.90;;;;;;5017400;28;20239;-79
2023/07/22 02:17:51;;;;;;;12.60;6.40;;;12.00;99.90;;;;;;5015402;28;21237;-79
2023/07/22 02:20:18;;;;;;;10.13;6.50;;;12.00;99.90;;;;;;5002038;28;20226;-79
2023/07/22 02:22:45;;;;;;;11.27;6.83;;;12.00;99.90;;;;;;5010997;28;20304;-79
2023/07/22 02:25:14;;;;;;;9.53;6.33;;;11.90;99.90;;;;;;4999473;28;20230;-79
2023/07/22 02:27:41;;;;;;;12.13;7.53;;;11.90;99.90;;;;;;5001236;28;20232;-80
2023/07/22 02:30:11;;;;;;;11.93;6.90;;;11.90;99.90;;;;;;5007847;28;20254;-80
2023/07/22 02:32:40;;;;;;;11.87;6.63;;;11.90;99.90;;;;;;5016862;28;20789;-79
2023/07/22 02:35:08;;;;;;;11.40;6.63;;;11.90;99.90;;;;;;5024248;28;20645;-80
2023/07/22 02:37:36;;;;;;;11.57;6.60;;;11.80;99.90;;;;;;5010531;28;20260;-80
2023/07/22 02:40:07;;;;;;;12.03;6.90;;;11.80;99.90;;;;;;5017753;28;20762;-80
2023/07/22 02:42:36;;;;;;;11.47;6.73;;;11.80;99.90;;;;;;5009523;28;20630;-80
2023/07/22 02:45:03;;;;;;;11.37;6.77;;;11.80;99.90;;;;;;5010441;28;20225;-79
2023/07/22 02:47:30;;;;;;;11.13;7.03;;;11.80;99.90;;;;;;5025897;28;20222;-79
2023/07/22 02:49:58;;;;;;;12.43;6.77;;;11.80;99.90;;;;;;5022174;28;20238;-79
2023/07/22 02:52:26;;;;;;;15.87;7.00;;;11.80;99.90;;;;;;5015113;28;20228;-79
2023/07/22 02:55:07;;;;;;;11.53;6.57;;;11.80;99.90;;;;;;5008652;28;20298;-79
2023/07/22 02:57:35;;;;;;;14.00;7.93;;;11.80;99.90;;;;;;5015290;28;20281;-79
2023/07/22 03:00:06;;;;;;;13.20;7.50;;;11.80;99.90;;;;;;5008792;28;20228;-79
2023/07/22 03:02:33;;;;;;;12.00;7.77;;;11.80;99.90;;;;;;5006574;28;20301;-79
2023/07/22 03:05:02;;;;;;;13.17;7.70;;;11.80;99.90;;;;;;5021648;28;20228;-78
2023/07/22 03:07:29;;;;;;;13.20;7.70;;;11.80;99.90;;;;;;5020610;28;21083;-79
2023/07/22 03:09:55;;;;;;;12.23;7.50;;;11.80;99.90;;;;;;5020003;28;20223;-79
2023/07/22 03:12:22;;;;;;;11.60;7.53;;;11.80;99.90;;;;;;5020307;28;20244;-79
2023/07/22 03:14:49;;;;;;;12.20;7.53;;;11.80;99.90;;;;;;5007665;28;20222;-79
2023/07/22 03:17:16;;;;;;;10.80;7.43;;;11.80;99.90;;;;;;5022078;28;20217;-79
2023/07/22 03:19:43;;;;;;;11.33;7.40;;;11.80;99.90;;;;;;5027655;28;20220;-79
2023/07/22 03:22:12;;;;;;;12.17;7.53;;;11.80;99.90;;;;;;5008739;28;20236;-78
2023/07/22 03:24:39;;;;;;;10.77;6.70;;;11.80;99.90;;;;;;5027198;28;20244;-80
2023/07/22 03:27:06;;;;;;;12.23;7.23;;;11.70;99.90;;;;;;5027505;28;20230;-80
2023/07/22 03:29:33;;;;;;;13.60;7.80;;;11.70;99.90;;;;;;5002287;28;20241;-79
2023/07/22 03:32:00;;;;;;;11.27;7.57;;;11.70;99.90;;;;;;5029309;28;20268;-79
2023/07/22 03:34:27;;;;;;;11.53;7.60;;;11.70;99.90;;;;;;5023493;28;20707;-80
2023/07/22 03:36:54;;;;;;;12.50;7.53;;;11.70;99.90;;;;;;5020170;28;20532;-80
2023/07/22 03:39:22;;;;;;;10.67;7.60;;;11.70;99.90;;;;;;5006220;28;20209;-79
2023/07/22 03:41:49;;;;;;;16.27;8.03;;;11.70;99.90;;;;;;5007441;28;20627;-79
2023/07/22 03:44:16;;;;;;;13.80;7.33;;;11.70;99.90;;;;;;5018440;28;20233;-79
2023/07/22 03:46:43;;;;;;;12.00;6.90;;;11.60;99.90;;;;;;5023194;28;20239;-79
2023/07/22 03:49:09;;;;;;;11.30;7.27;;;11.70;99.90;;;;;;5007015;28;20228;-79
2023/07/22 03:51:36;;;;;;;11.83;6.67;;;11.70;99.90;;;;;;5017487;28;20656;-79
2023/07/22 03:54:03;;;;;;;14.03;7.80;;;11.60;99.90;;;;;;5025822;28;20228;-79
2023/07/22 03:56:31;;;;;;;13.50;7.70;;;11.70;99.90;;;;;;5028053;28;20258;-80
2023/07/22 03:58:58;;;;;;;11.43;7.50;;;11.70;99.90;;;;;;5030789;28;20311;-80
2023/07/22 04:01:24;;;;;;;10.33;7.07;;;11.70;99.90;;;;;;5032319;28;20646;-79
2023/07/22 04:03:51;;;;;;;15.40;7.60;;;11.70;99.90;;;;;;5014030;28;20263;-80
2023/07/22 04:06:18;;;;;;;14.87;7.73;;;11.70;99.90;;;;;;5018176;28;20251;-80
2023/07/22 04:08:45;;;;;;;12.00;7.80;;;11.70;99.90;;;;;;5021276;28;20467;-80
2023/07/22 04:11:13;;;;;;;13.20;7.87;;;11.80;99.90;;;;;;5028525;28;20319;-80
2023/07/22 04:13:42;;;;;;;12.70;8.13;;;11.80;99.90;;;;;;5036043;28;20388;-80
2023/07/22 04:16:09;;;;;;;11.40;7.53;;;11.80;99.90;;;;;;5031414;28;20216;-81
2023/07/22 04:18:36;;;;;;;11.87;7.70;;;11.90;99.90;;;;;;5038237;28;20226;-80
2023/07/22 04:21:03;;;;;;;13.37;8.03;;;11.90;99.90;;;;;;5045712;28;20220;-80
2023/07/22 04:23:32;;;;;;;11.47;7.50;;;12.00;99.90;;;;;;5030870;28;20239;-78
2023/07/22 04:25:59;;;;;;;11.17;7.43;;;12.00;99.90;;;;;;5034103;28;20237;-78
2023/07/22 04:28:26;;;;;;;12.00;7.70;;;12.10;99.90;;;;;;5013149;28;20806;-79
2023/07/22 04:31:00;;;;;;;10.17;7.47;;;12.20;99.90;;;;;;5016984;28;20230;-79
2023/07/22 04:33:27;;;;;;;12.17;6.97;;;12.20;99.90;;;;;;5027375;28;20255;-80
2023/07/22 04:35:56;;;;;;;12.93;8.10;;;12.20;99.90;;;;;;5028474;28;20311;-79
2023/07/22 04:38:23;;;;;;;10.70;6.93;;;12.30;99.90;;;;;;5014687;28;20217;-79
2023/07/22 04:40:50;;;;;;;11.00;7.60;;;12.30;99.90;;;;;;5031380;28;20229;-80
2023/07/22 04:43:16;;;;;;;10.67;7.47;;;12.30;99.90;;;;;;5025334;28;20230;-80
2023/07/22 04:45:47;;;;;;;11.27;7.60;;;12.40;99.90;;;;;;5009617;28;20234;-80
2023/07/22 04:48:16;;;;;;;9.90;6.53;;;12.40;99.90;;;;;;5023844;28;20256;-80
2023/07/22 04:50:44;;;;;;;16.70;8.03;;;12.40;99.90;;;;;;5026693;28;20579;-80
2023/07/22 04:53:12;;;;;;;10.27;6.97;;;12.40;99.90;;;;;;5026439;28;20261;-79
2023/07/22 04:55:39;;;;;;;10.43;6.90;;;12.50;99.90;;;;;;5023853;28;20240;-81
2023/07/22 04:58:06;;;;;;;9.90;6.60;;;12.50;99.90;;;;;;5008008;28;20696;-80
2023/07/22 05:00:33;;;;;;;10.70;6.97;;;12.60;99.90;;;;;;5024353;28;20245;-79
2023/07/22 05:03:00;;;;;;;10.07;7.03;;;12.60;99.90;;;;;;5023173;28;20228;-78
2023/07/22 05:05:28;;;;;;;10.43;6.50;;;12.70;99.90;;;;;;5021556;28;20223;-78
2023/07/22 05:07:55;;;;;;;13.67;6.43;;;12.70;99.90;;;;;;5023759;28;20221;-79
2023/07/22 05:10:22;;;;;;;8.93;6.50;;;12.80;99.90;;;;;;5021986;28;20228;-78
2023/07/22 05:12:49;;;;;;;11.47;7.20;;;12.90;99.90;;;;;;5018051;28;20239;-78
2023/07/22 05:15:16;;;;;;;10.37;6.00;;;13.00;99.90;;;;;;5025861;28;20229;-78
2023/07/22 05:17:42;;;;;;;8.77;6.13;;;13.00;99.90;;;;;;5008207;28;20232;-78
2023/07/22 05:20:10;;;;;;;7.50;6.13;;;13.10;99.90;;;;;;5021761;28;20222;-78
2023/07/22 05:22:39;;;;;;;13.17;7.03;;;13.10;99.90;;;;;;5019609;28;20260;-78
2023/07/22 05:25:07;;;;;;;9.50;6.37;;;13.10;99.90;;;;;;5024281;28;20255;-78
2023/07/22 05:27:34;;;;;;;9.27;6.50;;;13.20;99.90;;;;;;5019013;28;20314;-78
2023/07/22 05:30:02;;;;;;;9.73;6.80;;;13.20;99.90;;;;;;5011906;28;20907;-78
2023/07/22 05:32:29;;;;;;;12.53;6.60;;;13.30;99.90;;;;;;5019801;28;20237;-78
2023/07/22 05:34:57;;;;;;;9.70;7.30;;;13.30;99.90;;;;;;5015174;28;20290;-78
2023/07/22 05:37:24;;;;;;;10.33;6.37;;;13.40;99.90;;;;;;5021021;28;20656;-78
2023/07/22 05:39:52;;;;;;;10.73;6.50;;;13.50;99.90;;;;;;5006290;28;20216;-78
2023/07/22 05:42:19;;;;;;;9.53;6.40;;;13.50;99.90;;;;;;5018689;28;20232;-78
2023/07/22 05:44:46;;;;;;;10.90;6.70;;;13.60;99.90;;;;;;5024624;28;20251;-78
2023/07/22 05:47:13;;;;;;;9.73;6.77;;;13.60;99.90;;;;;;5019785;28;20226;-78
2023/07/22 05:49:39;;;;;;;10.73;6.23;;;13.70;99.90;;;;;;5022928;28;20229;-78
2023/07/22 05:52:07;;;;;;;7.87;6.07;;;13.80;99.90;;;;;;5022615;28;20235;-78
2023/07/22 05:54:34;;;;;;;8.90;6.00;;;13.90;99.90;;;;;;5016760;28;20330;-78
2023/07/22 05:57:03;;;;;;;7.30;5.10;;;14.00;99.90;;;;;;5020910;28;20277;-78
2023/07/22 05:59:31;;;;;;;10.63;5.70;;;14.00;99.90;;;;;;5025827;28;20228;-78
2023/07/22 06:01:58;;;;;;;9.80;5.97;;;14.10;99.90;;;;;;4994227;28;20831;-78
2023/07/22 06:04:24;;;;;;;8.37;5.47;;;14.20;99.90;;;;;;5022715;28;20228;-78
2023/07/22 06:06:51;;;;;;;8.60;5.33;;;14.20;99.90;;;;;;5024313;28;20232;-78
2023/07/22 06:09:18;;;;;;;11.37;5.53;;;14.30;99.90;;;;;;5025810;28;20308;-78
2023/07/22 06:11:44;;;;;;;8.70;5.27;;;14.30;99.90;;;;;;5027663;28;20243;-77
2023/07/22 06:14:12;;;;;;;8.07;4.57;;;14.40;99.90;;;;;;5011936;28;20242;-78
2023/07/22 06:16:39;;;;;;;7.80;5.03;;;14.40;99.90;;;;;;5040001;28;20231;-78
2023/07/22 06:19:06;;;;;;;6.93;4.47;;;14.40;99.90;;;;;;5034471;28;20224;-78
2023/07/22 06:21:32;;;;;;;8.40;4.83;;;14.40;99.90;;;;;;5021860;28;20230;-79
2023/07/22 06:23:59;;;;;;;8.67;4.67;;;14.50;99.90;;;;;;5034129;28;20301;-79
2023/07/22 06:26:26;;;;;;;10.00;4.03;;;14.50;99.90;;;;;;5033759;28;20229;-79
2023/07/22 06:28:53;;;;;;;8.00;3.90;;;14.50;99.90;;;;;;5032915;28;20231;-78
2023/07/22 06:31:21;;;;;;;8.60;3.97;;;14.50;99.90;;;;;;5026244;28;20228;-79
2023/07/22 06:33:48;;;;;;;7.70;4.33;;;14.50;99.90;;;;;;5034251;28;20732;-78
2023/07/22 06:36:16;;;;;;;5.40;3.53;;;14.50;99.90;;;;;;5032112;28;20224;-78
2023/07/22 06:38:43;;;;;;;7.43;3.87;;;14.50;99.90;;;;;;5021300;28;20257;-78
2023/07/22 06:41:10;;;;;;;6.30;3.83;;;14.50;99.90;;;;;;5036270;28;20235;-78
2023/07/22 06:43:36;;;;;;;7.43;3.63;;;14.50;99.90;;;;;;5032754;28;20249;-78
2023/07/22 06:46:03;;;;;;;9.33;3.67;;;14.50;99.90;;;;;;5032833;28;20654;-78
2023/07/22 06:48:31;;;;;;;8.40;3.60;;;14.60;99.90;;;;;;5032922;28;20315;-78
2023/07/22 06:50:58;;;;;;;6.50;3.30;;;14.60;99.90;;;;;;5032763;28;20263;-78
2023/07/22 06:53:25;;;;;;;4.83;3.37;;;14.80;99.90;;;;;;5032997;28;20246;-79
2023/07/22 06:55:53;;;;;;;4.97;2.83;;;14.90;99.90;;;;;;5031994;28;20220;-79
2023/07/22 06:58:19;;;;;;;5.53;3.07;;;15.00;99.90;;;;;;5009264;28;20228;-80
2023/07/22 07:00:46;;;;;;;5.00;3.33;;;15.20;99.90;;;;;;5019204;28;20231;-79
2023/07/22 07:03:13;;;;;;;2.83;2.17;;;15.40;99.90;;;;;;5014453;28;20229;-85
2023/07/22 07:05:41;;;;;;;4.50;2.80;;;15.60;99.90;;;;;;5018890;28;20308;-80
2023/07/22 07:08:10;;;;;;;4.43;2.70;;;15.80;99.90;;;;;;5034193;28;20287;-79
2023/07/22 07:10:38;;;;;;;4.03;2.60;;;16.00;99.90;;;;;;5050727;28;20626;-79
2023/07/22 07:13:05;;;;;;;5.47;2.73;;;16.30;99.90;;;;;;5020302;28;20228;-80
2023/07/22 07:15:32;;;;;;;4.43;2.20;;;16.50;99.90;;;;;;5038420;28;20314;-79
2023/07/22 07:17:59;;;;;;;3.83;2.13;;;16.80;99.90;;;;;;5020326;28;20278;-81
2023/07/22 07:20:26;;;;;;;4.65;2.00;;;17.10;99.90;;;;;;5045428;28;20228;-79
2023/07/22 07:22:54;;;;;;;2.67;1.95;;;17.60;99.90;;;;;;5027386;28;20247;-81
2023/07/22 07:25:21;;;;;;;4.05;2.22;;;18.10;99.90;;;;;;5020823;28;20232;-80
2023/07/22 07:27:48;;;;;;;3.47;1.83;;;18.70;99.90;;;;;;5031573;28;20220;-81
2023/07/22 07:30:15;;;;;;;3.47;1.90;;;19.40;99.90;;;;;;5044837;28;20247;-81
2023/07/22 07:32:42;;;;;;;2.00;1.35;;;19.90;99.90;;;;;;5021536;28;20229;-80
2023/07/22 07:35:10;;;;;;;2.60;1.75;;;20.40;99.90;;;;;;5039931;28;20235;-82
2023/07/22 07:37:37;;;;;;;3.45;1.73;;;20.70;99.90;;;;;;5031310;28;20221;-81
2023/07/22 07:40:06;;;;;;;2.25;1.40;;;20.90;99.90;;;;;;5027838;28;20297;-79
2023/07/22 07:42:33;;;;;;;2.85;1.92;;;21.10;99.90;;;;;;5029611;28;20259;-79
2023/07/22 07:45:00;;;;;;;2.75;1.88;;;21.30;99.90;;;;;;5019589;28;20244;-78
2023/07/22 07:47:27;;;;;;;2.20;1.50;;;21.60;99.90;;;;;;5030660;28;20258;-78
2023/07/22 07:49:54;;;;;;;1.98;1.30;;;21.90;99.90;;;;;;5034971;28;20228;-78
2023/07/22 07:52:21;;;;;;;2.60;1.20;;;22.20;99.90;;;;;;5024156;28;20235;-78
2023/07/22 07:54:50;;;;;;;1.55;1.05;;;22.30;99.90;;;;;;5011916;28;20225;-78
2023/07/22 07:57:18;;;;;;;1.92;1.23;;;22.30;99.20;;;;;;5027933;28;20239;-78
2023/07/22 07:59:45;;;;;;;2.60;1.42;;;22.20;99.10;;;;;;5027757;28;20507;-77
2023/07/22 08:02:12;;;;;;;3.92;1.50;;;22.10;99.10;;;;;;5024596;28;20253;-78
2023/07/22 08:04:39;;;;;;;3.50;1.50;;;22.00;98.50;;;;;;5009647;28;20228;-78
2023/07/22 08:07:08;;;;;;;3.28;1.70;;;21.80;98.90;;;;;;5013684;28;20225;-78
2023/07/22 08:09:36;;;;;;;2.50;1.50;;;21.70;98.60;;;;;;5029912;28;20212;-78
2023/07/22 08:12:03;;;;;;;2.92;1.30;;;21.70;99.50;;;;;;5028113;28;20235;-78
2023/07/22 08:14:31;;;;;;;1.85;1.42;;;21.80;99.10;;;;;;5028979;28;20532;-77
2023/07/22 08:16:57;;;;;;;3.17;1.80;;;21.90;99.00;;;;;;5042074;28;20620;-78
2023/07/22 08:19:24;;;;;;;2.53;1.50;;;22.00;99.10;;;;;;5031515;28;20580;-77
2023/07/22 08:21:51;;;;;;;4.70;1.80;;;22.00;98.80;;;;;;5015411;28;20233;-78
2023/07/22 08:24:17;;;;;;;3.70;1.40;;;22.00;98.50;;;;;;5029250;28;20243;-77
2023/07/22 08:26:44;;;;;;;6.03;1.90;;;21.70;97.60;;;;;;5036716;28;20225;-77
2023/07/22 08:29:12;;;;;;;2.75;1.67;;;21.60;98.20;;;;;;5028816;28;20232;-78
2023/07/22 08:31:40;;;;;;;2.72;1.50;;;21.50;98.70;;;;;;5010597;28;20232;-78
2023/07/22 08:34:07;;;;;;;5.80;1.50;;;21.60;99.20;;;;;;5035525;28;20729;-78
2023/07/22 08:36:34;;;;;;;3.60;1.50;;;21.70;98.60;;;;;;5029540;28;20312;-78
2023/07/22 08:39:00;;;;;;;2.55;1.70;;;21.90;98.80;;;;;;5030470;28;20252;-77
2023/07/22 08:41:28;;;;;;;2.95;1.60;;;22.00;97.70;;;;;;5029436;28;20223;-78
2023/07/22 08:43:55;;;;;;;2.22;1.40;;;22.20;98.00;;;;;;5031410;28;20294;-78
2023/07/22 08:46:24;;;;;;;2.05;1.50;;;22.30;97.70;;;;;;5030320;28;20220;-78
2023/07/22 08:48:54;;;;;;;5.32;1.50;;;22.40;97.40;;;;;;5031129;28;20722;-78
2023/07/22 08:51:23;;;;;;;2.50;1.00;;;22.70;97.00;;;;;;5031216;28;20280;-78
2023/07/22 08:53:51;;;;;;;3.05;1.10;;;23.00;96.90;;;;;;5018304;28;20216;-78
2023/07/22 08:56:18;;;;;;;2.88;1.27;;;23.30;96.30;;;;;;5041010;28;20227;-78
2023/07/22 08:58:46;;;;;;;3.25;1.33;;;23.50;95.70;;;;;;5033535;28;20221;-77
2023/07/22 09:01:14;;;;;;;1.52;1.08;;;23.70;95.00;;;;;;5031447;28;20224;-78
2023/07/22 09:03:42;;;;;;;4.90;1.08;;;24.00;94.80;;;;;;5031545;28;20224;-78
2023/07/22 09:06:11;;;;;;;2.33;0.95;;;24.40;93.50;;;;;;5027128;28;20216;-78
2023/07/22 09:08:39;;;;;;;1.33;0.90;;;24.60;92.80;;;;;;5030822;28;20299;-78
2023/07/22 09:11:07;;;;;;;1.73;1.08;;;24.80;92.00;;;;;;5029883;28;20275;-78
2023/07/22 09:13:34;;;;;;;2.58;1.17;;;24.90;91.50;;;;;;5033066;28;20910;-77
2023/07/22 09:16:02;;;;;;;1.35;0.80;;;25.00;91.60;;;;;;5035617;28;20994;-77
2023/07/22 09:18:28;;;;;;;2.30;1.02;;;25.10;91.20;;;;;;5032223;28;20216;-78
2023/07/22 09:20:55;;;;;;;1.90;0.98;;;25.20;91.10;;;;;;5015630;28;20220;-78
2023/07/22 09:23:34;;;;;;;2.05;1.00;;;25.30;89.60;;;;;;5013221;28;20242;-78
2023/07/22 09:26:11;;;;;;;3.35;1.00;;;25.30;87.10;;;;;;5040401;28;20232;-78
2023/07/22 09:28:55;;;;;;;1.50;0.93;;;25.20;86.90;;;;;;5012763;28;20422;-78
2023/07/22 09:31:23;;;;;;;3.03;1.10;;;24.90;85.50;;;;;;5027088;28;20232;-78
2023/07/22 09:33:50;;;;;;;1.33;0.80;;;24.70;86.40;;;;;;5022270;28;20251;-78
2023/07/22 09:36:17;;;;;;;0.80;0.80;;;24.40;86.10;;;;;;5029201;28;20220;-77
2023/07/22 09:38:45;;;;;;;1.70;1.00;;;24.10;86.50;;;;;;5023192;28;20216;-78
2023/07/22 09:41:13;;;;;;;3.30;1.15;;;24.00;87.60;;;;;;5029912;28;20221;-78
2023/07/22 09:43:40;;;;;;;2.72;1.00;;;23.90;88.00;;;;;;5033432;28;20267;-78
2023/07/22 09:46:08;;;;;;;1.58;0.85;;;23.80;90.00;;;;;;5042367;28;20225;-78
2023/07/22 09:48:41;;;;;;;1.75;0.98;;;23.80;87.90;;;;;;5034290;28;20220;-78
2023/07/22 09:51:13;;;;;;;2.50;1.30;;;23.60;89.20;;;;;;5016194;28;20645;-78
2023/07/22 09:53:47;;;;;;;2.53;1.17;;;23.50;87.90;;;;;;5034035;28;21015;-81
2023/07/22 09:56:14;;;;;;;1.77;1.10;;;23.50;88.90;;;;;;5024674;28;21012;-80
2023/07/22 09:58:41;;;;;;;2.90;1.10;;;23.50;90.20;;;;;;5024528;28;20217;-80
2023/07/22 10:01:09;;;;;;;1.90;1.00;;;23.60;89.10;;;;;;5028609;28;20232;-81
2023/07/22 10:03:39;;;;;;;1.45;1.00;;;23.70;87.40;;;;;;5043997;28;20243;-81
2023/07/22 10:06:08;;;;;;;1.80;1.13;;;23.70;85.30;;;;;;5030685;28;20263;-81
2023/07/22 10:08:36;;;;;;;3.17;1.30;;;23.60;87.00;;;;;;5031240;28;21013;-81
2023/07/22 10:11:08;;;;;;;1.33;1.05;;;23.60;88.00;;;;;;5029300;28;20228;-81
2023/07/22 10:13:35;;;;;;;2.15;1.10;;;23.60;86.50;;;;;;5028178;28;20232;-81
2023/07/22 10:16:03;;;;;;;1.23;1.00;;;23.70;87.60;;;;;;5015855;28;20229;-80
2023/07/22 10:18:31;;;;;;;2.03;1.00;;;23.70;87.70;;;;;;5028950;28;20220;-80
2023/07/22 10:20:59;;;;;;;2.33;1.20;;;23.70;86.40;;;;;;5029218;28;20324;-80
2023/07/22 10:23:27;;;;;;;1.73;1.30;;;23.70;87.00;;;;;;5028417;28;20247;-80
2023/07/22 10:25:55;;;;;;;2.03;1.00;;;23.60;85.60;;;;;;5044158;28;20466;-80
2023/07/22 10:28:23;;;;;;;2.75;1.10;;;23.50;86.60;;;;;;5027341;28;20220;-83
2023/07/22 10:30:50;;;;;;;1.85;1.20;;;23.40;87.10;;;;;;5028491;28;20713;-80
2023/07/22 10:33:17;;;;;;;1.80;1.10;;;23.40;86.90;;;;;;5049217;28;20319;-80
2023/07/22 10:36:01;;;;;;;2.80;1.52;;;23.40;85.90;;;;;;5014965;28;20227;-81
2023/07/22 10:38:29;;;;;;;2.00;1.20;;;23.40;84.60;;;;;;5028617;28;20217;-80
2023/07/22 10:40:56;;;;;;;2.08;1.27;;;23.30;86.60;;;;;;5028190;28;20638;-82
2023/07/22 10:43:27;;;;;;;2.40;1.30;;;23.30;86.10;;;;;;5043971;28;20243;-80
2023/07/22 10:45:56;;;;;;;2.20;1.30;;;23.40;85.30;;;;;;5023119;28;20220;-81
2023/07/22 10:48:26;;;;;;;1.83;1.00;;;23.60;85.00;;;;;;5022691;28;20229;-80
2023/07/22 10:50:54;;;;;;;1.77;1.30;;;23.90;83.70;;;;;;5029141;28;20713;-82
2023/07/22 10:53:30;;;;;;;1.95;1.40;;;24.30;82.40;;;;;;5028115;28;20227;-81
2023/07/22 10:56:07;;;;;;;1.92;1.20;;;24.70;81.80;;;;;;5028751;28;20231;-81
2023/07/22 10:58:57;;;;;;;2.22;1.25;;;25.00;80.50;;;;;;5028778;28;20312;-81
2023/07/22 11:01:25;;;;;;;1.13;1.02;;;25.20;78.90;;;;;;5047657;28;20224;-84
2023/07/22 11:04:11;;;;;;;2.00;1.30;;;25.30;77.40;;;;;;5029516;28;20227;-81
2023/07/22 11:06:40;;;;;;;2.42;1.20;;;25.40;76.80;;;;;;5029829;28;20840;-81
2023/07/22 11:09:07;;;;;;;2.42;1.45;;;25.50;77.00;;;;;;5013535;28;20233;-81
2023/07/22 11:11:38;;;;;;;2.10;1.50;;;25.60;77.20;;;;;;5029948;28;20235;-82
2023/07/22 11:14:17;;;;;;;2.28;1.30;;;25.70;77.80;;;;;;5028444;28;20221;-81
2023/07/22 11:16:46;;;;;;;1.80;1.30;;;25.70;76.90;;;;;;5029850;28;20745;-83
2023/07/22 11:19:14;;;;;;;1.38;1.08;;;25.70;76.60;;;;;;5028722;28;20228;-80
2023/07/22 11:21:41;;;;;;;3.10;1.40;;;25.70;75.40;;;;;;5018440;28;20224;-81
2023/07/22 11:24:08;;;;;;;2.13;1.50;;;25.60;71.70;;;;;;5031191;28;20232;-81
2023/07/22 11:26:35;;;;;;;2.58;1.38;;;25.60;73.10;;;;;;5015292;28;20723;-81
2023/07/22 11:29:02;;;;;;;3.17;1.75;;;25.60;72.80;;;;;;5026894;28;20232;-81
2023/07/22 11:31:36;;;;;;;2.95;1.88;;;25.60;71.70;;;;;;5028588;28;20225;-82
2023/07/22 11:34:03;;;;;;;2.00;1.67;;;25.50;70.50;;;;;;5031047;28;20221;-81
2023/07/22 11:36:30;;;;;;;2.42;1.73;;;25.40;69.90;;;;;;5024408;28;20233;-82
2023/07/22 11:39:02;;;;;;;2.78;2.17;;;25.30;70.30;;;;;;5030716;28;20874;-80
2023/07/22 11:41:30;;;;;;;2.45;2.25;;;25.20;70.90;;;;;;5033646;28;20224;-81
2023/07/22 11:43:58;;;;;;;2.35;2.00;;;25.10;71.70;;;;;;5029066;28;20830;-81
2023/07/22 11:46:25;;;;;;;2.72;2.10;;;25.00;72.60;;;;;;5017733;28;20228;-83
2023/07/22 11:48:54;;;;;;;2.40;2.10;;;24.90;73.50;;;;;;5028976;28;20251;-81
2023/07/22 11:51:22;;;;;;;3.03;2.00;;;24.90;73.60;;;;;;5054355;28;20224;-80
2023/07/22 11:53:50;;;;;;;2.47;2.17;;;24.90;75.10;;;;;;5028399;28;20227;-80
2023/07/22 11:56:21;;;;;;;3.35;2.47;;;24.90;74.30;;;;;;5036134;28;20614;-83
2023/07/22 11:58:52;;;;;;;3.58;2.33;;;25.00;71.90;;;;;;5031692;28;20235;-81
2023/07/22 12:01:19;;;;;;;2.33;2.13;;;25.10;71.70;;;;;;5012504;28;20240;-80
2023/07/22 12:03:46;;;;;;;2.67;2.08;;;25.10;71.80;;;;;;5047475;28;20995;-83
2023/07/22 12:06:15;;;;;;;3.47;2.30;;;25.10;72.60;;;;;;5049109;28;20232;-81
2023/07/22 12:08:46;;;;;;;3.65;2.55;;;25.00;73.40;;;;;;5031097;28;20227;-82
2023/07/22 12:11:18;;;;;;;2.45;2.25;;;24.90;72.30;;;;;;5026222;28;20951;-80
2023/07/22 12:13:46;;;;;;;3.20;2.65;;;24.90;71.60;;;;;;5031226;28;20624;-81
2023/07/22 12:16:13;;;;;;;2.65;2.30;;;24.70;72.80;;;;;;5043307;28;20650;-82
2023/07/22 12:18:44;;;;;;;3.50;2.25;;;24.60;72.80;;;;;;5045780;28;20239;-80
2023/07/22 12:21:11;;;;;;;4.43;2.70;;;24.60;73.80;;;;;;5022959;28;20781;-82
2023/07/22 12:23:39;;;;;;;3.00;2.53;;;24.60;74.30;;;;;;5024815;28;20237;-81
2023/07/22 12:26:07;;;;;;;3.22;2.67;;;24.70;73.90;;;;;;5028862;28;20235;-81
2023/07/22 12:28:34;;;;;;;4.35;2.80;;;24.90;73.90;;;;;;5043071;28;20240;-81
2023/07/22 12:31:01;;;;;;;3.25;2.95;;;24.90;73.80;;;;;;5026229;28;20232;-82
2023/07/22 12:33:28;;;;;;;4.38;2.70;;;24.90;73.40;;;;;;5011885;28;20232;-82
2023/07/22 12:35:56;;;;;;;4.32;3.28;;;24.80;73.30;;;;;;5016166;28;20769;-81
2023/07/22 12:38:23;;;;;;;3.63;3.00;;;24.70;75.00;;;;;;5020412;28;20279;-82
2023/07/22 12:40:51;;;;;;;4.30;2.75;;;24.60;74.80;;;;;;5027591;28;20225;-81
2023/07/22 12:43:18;;;;;;;3.70;2.70;;;24.50;75.20;;;;;;5028279;28;21042;-81
2023/07/22 12:45:44;;;;;;;3.28;2.50;;;24.50;75.20;;;;;;5043632;28;20699;-80